Kayenta, AZ

12:40 PM MDT on May 05, 2015 (GMT -0600)
Blanding | | Change Station
CLOSE
Current Station
Airport
Location: Blanding,
Elevation: 5863 ft
Nearby Weather Stations

Elev 5863 ft 37.58 °N, 109.48 °W | Updated 5 minutes ago

Rain
Rain
51 °F
Feels Like 51 °F
N
7
Wind Variable Wind from SSW

Today
High -- | Low -- °F
--% Chance of Precip.
Yesterday
High -- | Low -- °F
Precip. -- in
6:23 AM 8:12 PM
Full, 97% visible
Pressure 29.99 in
Visibility 7.0 miles
Clouds Scattered Clouds 1000 ft
Mostly Cloudy 1600 ft
Overcast 3500 ft
Dew Point 48 °F
Humidity 90%
Rainfall 0.00 in
Snow Depth Not available.
UV 4 out of 12
Pollen .80 out of 12
Air Quality Not available.
Flu Activity Local Activity
METAR KBDG 051835Z AUTO 21006KT 7SM SCT010 BKN016 OVC035 11/09 A2999 RMK AO1 T01050090

More Conditions Fewer Conditions

Pressure 29.99 in
Visibility 7.0 miles
Clouds Scattered Clouds 1000 ft
Mostly Cloudy 1600 ft
Overcast 3500 ft
Dew Point 48 °F
Humidity 90%
Rainfall 0.00 in
Snow Depth Not available.
UV 4 out of 12
Pollen .80 out of 12
Air Quality Not available.
Flu Activity Local Activity
METAR KBDG 051835Z AUTO 21006KT 7SM SCT010 BKN016 OVC035 11/09 A2999 RMK AO1 T01050090

More Conditions Fewer Conditions

10-Day Weather Forecast

Almanac

Astronomy

May. 05, 2015 Rise Set
Actual Time
Civil Twilight
Nautical Twilight
Astronomical Twilight
Moon
Length of Visible Light
Length of Day
Tomorrow will be .
, % of the Moon is Illuminated

Today's Extremes

State Highs State Lows

Community

WunderPhotos

Upload Photos

1,818,953 photos uploaded!

WunderBlogs® & News

Nearby

Air Quality

  Air Quality AQ Index Pollutant
Not available.

Snow Depth

Station Depth Elevation

Earthquake Activity

City Distance Mag. Time & Date
Minimum magnitude displayed is 2.5.

Coastal Water Temperatures

Place Temperature

Stations

Nearby Weather Stations

Station Location Temp. Windchill Dew Point Humidity Wind Precip. Elev Updated Type